createdAt,value
2023-02-02T00:00:39.246Z,13.70
2023-02-02T00:06:01.618Z,13.70
2023-02-02T00:11:38.495Z,13.70
2023-02-02T00:14:12.320Z,13.80
2023-02-02T00:16:45.736Z,13.80
2023-02-02T00:19:23.973Z,13.70
2023-02-02T00:21:58.166Z,13.70
2023-02-02T00:24:29.017Z,13.70
2023-02-02T00:27:04.112Z,13.70
2023-02-02T00:29:34.625Z,13.70
2023-02-02T00:32:04.637Z,13.70
2023-02-02T00:34:37.745Z,13.70
2023-02-02T00:37:06.286Z,13.70
2023-02-02T00:39:34.773Z,13.70
2023-02-02T00:42:04.156Z,13.70
2023-02-02T01:21:31.080Z,13.70
2023-02-02T01:27:12.768Z,13.70
2023-02-02T01:29:51.107Z,13.70
2023-02-02T01:32:34.002Z,13.70
2023-02-02T01:38:25.951Z,13.70
2023-02-02T01:41:04.868Z,13.70
2023-02-02T01:44:26.437Z,13.70
2023-02-02T01:47:10.515Z,13.70
2023-02-02T01:49:56.056Z,13.70
2023-02-02T01:52:28.688Z,13.70
2023-02-02T01:55:12.981Z,13.70
2023-02-02T01:57:51.614Z,13.60
2023-02-02T02:00:28.021Z,13.60
2023-02-02T02:03:09.212Z,13.60
2023-02-02T02:05:54.188Z,13.70
2023-02-02T02:08:30.543Z,13.70
2023-02-02T02:11:11.086Z,13.60
2023-02-02T02:14:03.512Z,13.70
2023-02-02T02:17:01.889Z,13.70
2023-02-02T02:20:39.407Z,13.70
2023-02-02T02:23:55.404Z,13.70
2023-02-02T02:27:17.109Z,13.70
2023-02-02T02:30:26.623Z,13.60
2023-02-02T02:33:38.207Z,13.60
2023-02-02T02:36:06.057Z,13.60
2023-02-02T02:38:50.256Z,13.60
2023-02-02T02:44:37.788Z,13.50
2023-02-02T02:49:55.428Z,13.60
2023-02-02T02:52:41.230Z,13.60
2023-02-02T02:55:26.644Z,13.60
2023-02-02T02:58:15.883Z,13.60
2023-02-02T03:01:00.772Z,13.60
2023-02-02T03:04:01.661Z,13.60
2023-02-02T03:07:20.993Z,13.60
2023-02-02T03:10:04.116Z,13.60
2023-02-02T03:15:41.756Z,13.60
2023-02-02T03:18:37.223Z,13.60
2023-02-02T03:21:24.936Z,13.60
2023-02-02T03:24:02.177Z,13.60
2023-02-02T03:26:50.687Z,13.60
2023-02-02T03:29:32.089Z,13.50
2023-02-02T03:32:05.120Z,13.60
2023-02-02T03:35:15.217Z,13.60
2023-02-02T03:37:41.697Z,13.50
2023-02-02T03:40:12.053Z,13.60
2023-02-02T03:42:51.653Z,13.50
2023-02-02T03:45:49.591Z,13.60
2023-02-02T03:48:39.278Z,13.50
2023-02-02T03:51:33.725Z,13.60
2023-02-02T03:54:41.280Z,13.60
2023-02-02T03:57:21.620Z,13.60
2023-02-02T03:59:54.976Z,13.50
2023-02-02T04:02:35.409Z,13.50
2023-02-02T04:07:52.410Z,13.50
2023-02-02T04:10:28.035Z,13.50
2023-02-02T04:13:03.650Z,13.50
2023-02-02T04:15:35.442Z,13.50
2023-02-02T04:18:15.066Z,13.50
2023-02-02T04:20:47.916Z,13.50
2023-02-02T04:23:28.856Z,13.50
2023-02-02T04:26:09.108Z,13.50
2023-02-02T04:28:42.339Z,13.50
2023-02-02T04:31:12.996Z,13.50
2023-02-02T04:33:52.151Z,13.50
2023-02-02T04:36:30.950Z,13.50
2023-02-02T04:39:03.880Z,13.50
2023-02-02T04:41:49.071Z,13.50
2023-02-02T04:44:30.209Z,13.50
2023-02-02T04:47:04.726Z,13.50
2023-02-02T04:49:44.204Z,13.50
2023-02-02T04:52:40.699Z,13.50
2023-02-02T04:58:11.917Z,13.50
2023-02-02T05:01:44.790Z,13.50
2023-02-02T05:04:28.550Z,13.50
2023-02-02T05:07:07.884Z,13.40
2023-02-02T05:09:48.650Z,13.40
2023-02-02T05:18:37.241Z,13.50
2023-02-02T05:21:54.506Z,13.50
2023-02-02T05:24:40.121Z,13.40
2023-02-02T05:27:10.117Z,13.40
2023-02-02T05:41:21.348Z,13.40
2023-02-02T05:43:48.589Z,13.40
2023-02-02T05:46:15.815Z,13.40
2023-02-02T05:48:42.813Z,13.40
2023-02-02T05:51:21.929Z,13.40
2023-02-02T05:53:48.951Z,13.40
2023-02-02T05:56:16.291Z,13.40
2023-02-02T05:58:47.410Z,13.40
2023-02-02T06:01:15.011Z,13.40
2023-02-02T06:03:42.271Z,13.40
2023-02-02T06:06:10.179Z,13.40
2023-02-02T06:08:37.258Z,13.40
2023-02-02T06:11:12.195Z,13.40
2023-02-02T06:13:39.284Z,13.40
2023-02-02T06:16:07.372Z,13.40
2023-02-02T06:18:35.606Z,13.40
2023-02-02T06:21:04.199Z,13.40
2023-02-02T06:23:31.276Z,13.40
2023-02-02T06:25:58.681Z,13.40
2023-02-02T06:28:25.825Z,13.40
2023-02-02T06:30:52.959Z,13.40
2023-02-02T06:33:20.030Z,13.40
2023-02-02T06:35:46.969Z,13.40
2023-02-02T06:38:13.987Z,13.40
2023-02-02T06:40:41.068Z,13.40
2023-02-02T06:43:09.123Z,13.40
2023-02-02T06:45:40.155Z,13.40
2023-02-02T06:48:59.742Z,13.40
2023-02-02T06:51:26.951Z,13.40
2023-02-02T06:53:53.949Z,13.40
2023-02-02T06:56:21.044Z,13.30
2023-02-02T06:58:47.992Z,13.30
2023-02-02T07:01:15.417Z,13.30
2023-02-02T07:06:26.738Z,13.40
2023-02-02T07:09:01.240Z,13.30
2023-02-02T07:11:33.000Z,13.40
2023-02-02T07:14:01.810Z,13.30
2023-02-02T07:16:29.027Z,13.30
2023-02-02T07:18:57.042Z,13.30
2023-02-02T07:21:26.374Z,13.40
2023-02-02T07:23:53.580Z,13.30
2023-02-02T07:26:21.404Z,13.30
2023-02-02T07:28:48.562Z,13.40
2023-02-02T07:31:27.262Z,13.40
2023-02-02T07:33:55.006Z,13.30
2023-02-02T07:36:24.508Z,13.30
2023-02-02T07:38:57.514Z,13.30
2023-02-02T07:41:25.244Z,13.40
2023-02-02T07:43:52.574Z,13.30
2023-02-02T07:46:20.604Z,13.40
2023-02-02T07:48:47.826Z,13.30
2023-02-02T07:51:18.564Z,13.30
2023-02-02T07:53:47.141Z,13.30
2023-02-02T07:56:25.946Z,13.30
2023-02-02T07:58:54.584Z,13.30
2023-02-02T08:01:23.224Z,13.30
2023-02-02T08:03:51.181Z,13.30
2023-02-02T08:06:21.825Z,13.30
2023-02-02T08:08:49.419Z,13.30
2023-02-02T08:54:44.502Z,13.30
2023-02-02T11:59:12.833Z,13.50
2023-02-02T12:33:32.376Z,13.60
2023-02-02T12:36:39.785Z,13.60
2023-02-02T12:42:45.645Z,13.60
2023-02-02T14:16:24.930Z,13.70
2023-02-02T14:29:01.123Z,13.70
2023-02-02T17:16:43.953Z,13.90
2023-02-02T17:19:21.769Z,13.90
2023-02-02T17:22:14.155Z,14.00
2023-02-02T17:25:34.218Z,13.90
2023-02-02T17:32:31.483Z,13.90
2023-02-02T17:45:48.132Z,14.00
2023-02-02T19:01:43.427Z,14.10
2023-02-02T19:07:10.167Z,14.00
2023-02-02T19:17:32.986Z,14.00
2023-02-02T19:20:03.358Z,14.00
2023-02-02T19:22:32.479Z,14.10
2023-02-02T19:24:59.801Z,14.10
2023-02-02T19:27:27.272Z,14.10
2023-02-02T19:29:59.889Z,14.10
2023-02-02T19:32:31.108Z,14.00
2023-02-02T19:35:01.616Z,14.00
2023-02-02T19:37:33.436Z,14.10
2023-02-02T19:40:09.964Z,14.10
2023-02-02T19:43:22.023Z,14.10
2023-02-02T19:45:49.220Z,14.00
2023-02-02T19:48:35.245Z,14.10
2023-02-02T19:51:37.369Z,14.10
2023-02-02T19:54:18.629Z,14.10
2023-02-02T19:56:50.072Z,14.10
2023-02-02T19:59:22.003Z,14.10
2023-02-02T21:45:28.618Z,14.00
2023-02-02T21:53:25.410Z,14.00
2023-02-02T21:56:40.745Z,14.00
2023-02-02T22:00:16.000Z,14.10
2023-02-02T22:06:32.273Z,14.00
2023-02-02T22:09:11.571Z,14.10
2023-02-02T22:12:02.187Z,14.00
2023-02-02T22:14:37.986Z,14.00
2023-02-02T22:17:25.182Z,14.00
2023-02-02T22:20:02.020Z,14.00
2023-02-02T22:22:50.681Z,14.00
2023-02-02T22:28:23.050Z,14.00
2023-02-02T22:31:53.629Z,14.00
2023-02-02T22:34:28.231Z,14.00
2023-02-02T22:36:55.241Z,14.00
2023-02-02T22:39:23.258Z,14.00
2023-02-02T22:41:50.217Z,14.00
2023-02-02T22:44:20.384Z,14.00
2023-02-02T22:46:48.555Z,14.00
2023-02-02T22:49:15.637Z,14.00
2023-02-02T23:46:43.964Z,14.00
2023-02-02T23:49:11.499Z,14.00
2023-02-02T23:51:39.358Z,14.00
2023-02-02T23:54:06.693Z,14.00
2023-02-02T23:56:33.845Z,14.00
